TimeEDT,TemperatureF,Dew PointF,Humidity,Sea Level PressureIn,VisibilityMPH,Wind Direction,Wind SpeedMPH,Gust SpeedMPH,PrecipitationIn,Events,Conditions,WindDirDegrees,DateUTC
12:53 AM,60.1,52.0,75,30.01,10.0,West,6.9,-,N/A,,Clear,280,2013-05-07 04:53:00
1:53 AM,57.9,52.0,81,29.99,10.0,West,5.8,-,N/A,,Clear,280,2013-05-07 05:53:00
2:53 AM,57.0,52.0,83,29.99,10.0,WSW,4.6,-,N/A,,Clear,250,2013-05-07 06:53:00
4:53 AM,57.0,52.0,83,29.99,10.0,SW,5.8,-,N/A,,Clear,220,2013-05-07 08:53:00
5:53 AM,57.0,52.0,83,30.00,10.0,Calm,Calm,-,N/A,,Clear,0,2013-05-07 09:53:00
6:53 AM,55.9,52.0,87,30.02,10.0,Calm,Calm,-,N/A,,Clear,0,2013-05-07 10:53:00
7:53 AM,60.1,54.0,80,30.05,10.0,SSW,5.8,-,N/A,,Clear,200,2013-05-07 11:53:00
8:53 AM,64.9,55.0,70,30.05,10.0,SW,3.5,-,N/A,,Clear,230,2013-05-07 12:53:00
9:53 AM,69.1,52.0,54,30.05,10.0,WSW,8.1,-,N/A,,Partly Cloudy,250,2013-05-07 13:53:00
10:53 AM,70.0,52.0,53,30.05,10.0,South,6.9,-,N/A,,Partly Cloudy,190,2013-05-07 14:53:00
11:53 AM,73.9,54.0,50,30.04,10.0,West,11.5,16.1,N/A,,Partly Cloudy,280,2013-05-07 15:53:00
12:53 PM,77.0,52.0,42,30.03,10.0,WSW,12.7,18.4,N/A,,Scattered Clouds,250,2013-05-07 16:53:00
1:53 PM,77.0,52.0,42,30.01,10.0,WSW,12.7,18.4,N/A,,Mostly Cloudy,250,2013-05-07 17:53:00
2:53 PM,79.0,52.0,39,29.99,10.0,SW,10.4,19.6,N/A,,Clear,220,2013-05-07 18:53:00
3:53 PM,80.1,53.1,39,29.97,10.0,WSW,11.5,-,N/A,,Scattered Clouds,250,2013-05-07 19:53:00
4:53 PM,81.0,52.0,36,29.97,10.0,SW,10.4,-,N/A,,Mostly Cloudy,230,2013-05-07 20:53:00
5:53 PM,80.1,51.1,36,29.97,10.0,WSW,9.2,-,N/A,,Partly Cloudy,250,2013-05-07 21:53:00
6:53 PM,78.1,53.1,42,29.97,10.0,West,11.5,-,N/A,,Partly Cloudy,270,2013-05-07 22:53:00
7:53 PM,75.0,53.1,46,29.99,10.0,West,9.2,-,N/A,,Partly Cloudy,260,2013-05-07 23:53:00
8:53 PM,71.1,55.0,57,30.02,10.0,West,5.8,-,N/A,,Clear,260,2013-05-08 00:53:00
9:53 PM,69.1,55.0,61,30.04,10.0,West,4.6,-,N/A,,Clear,260,2013-05-08 01:53:00
10:53 PM,66.0,55.0,68,30.06,10.0,West,5.8,-,N/A,,Clear,280,2013-05-08 02:53:00
11:53 PM,66.0,57.0,73,30.06,10.0,Calm,Calm,-,N/A,,Clear,0,2013-05-08 03:53:00